createdAt,value
2018-09-28T00:01:14.430Z,11.13
2018-09-28T00:03:43.438Z,11.50
2018-09-28T00:06:12.449Z,10.67
2018-09-28T00:08:41.462Z,10.80
2018-09-28T00:11:10.623Z,10.47
2018-09-28T00:13:39.704Z,10.17
2018-09-28T00:16:08.711Z,10.17
2018-09-28T00:18:37.768Z,10.40
2018-09-28T00:21:06.984Z,9.50
2018-09-28T00:23:35.954Z,10.33
2018-09-28T00:26:05.016Z,9.23
2018-09-28T00:28:34.035Z,9.67
2018-09-28T00:31:03.087Z,9.67
2018-09-28T00:33:32.106Z,9.30
2018-09-28T00:36:01.202Z,9.70
2018-09-28T00:38:30.126Z,9.53
2018-09-28T00:40:59.135Z,9.33
2018-09-28T00:43:28.096Z,10.97
2018-09-28T00:45:57.142Z,10.30
2018-09-28T00:48:26.300Z,11.53
2018-09-28T00:50:55.386Z,12.63
2018-09-28T00:53:24.350Z,11.67
2018-09-28T00:55:53.393Z,12.67
2018-09-28T00:58:22.402Z,11.80
2018-09-28T01:00:51.514Z,12.03
2018-09-28T01:03:20.578Z,11.40
2018-09-28T01:05:49.630Z,11.60
2018-09-28T01:08:18.661Z,11.30
2018-09-28T01:10:47.652Z,10.77
2018-09-28T01:13:16.802Z,10.80
2018-09-28T01:15:45.808Z,11.23
2018-09-28T01:18:14.962Z,10.33
2018-09-28T01:20:44.005Z,10.27
2018-09-28T01:23:12.982Z,10.00
2018-09-28T01:25:41.999Z,10.57
2018-09-28T01:28:10.990Z,9.87
2018-09-28T01:30:40.064Z,10.10
2018-09-28T01:33:09.095Z,10.27
2018-09-28T01:35:38.042Z,9.87
2018-09-28T01:38:07.034Z,10.17
2018-09-28T01:40:35.996Z,9.60
2018-09-28T01:43:05.072Z,10.00
2018-09-28T01:45:34.135Z,10.70
2018-09-28T01:48:03.171Z,9.67
2018-09-28T01:50:32.137Z,11.30
2018-09-28T01:53:01.336Z,11.23
2018-09-28T01:55:30.443Z,10.73
2018-09-28T01:57:59.535Z,11.87
2018-09-28T02:00:28.601Z,10.50
2018-09-28T02:02:57.930Z,10.93
2018-09-28T02:05:26.938Z,10.80
2018-09-28T02:07:55.958Z,10.37
2018-09-28T02:10:24.969Z,10.40
2018-09-28T02:12:53.962Z,10.87
2018-09-28T02:15:22.941Z,10.17
2018-09-28T02:17:51.995Z,9.63
2018-09-28T02:20:21.064Z,10.20
2018-09-28T02:22:50.118Z,10.23
2018-09-28T02:25:19.138Z,10.80
2018-09-28T02:27:48.107Z,11.73
2018-09-28T02:30:17.136Z,10.73
2018-09-28T02:32:46.186Z,10.40
2018-09-28T02:35:15.186Z,11.50
2018-09-28T02:37:44.306Z,10.90
2018-09-28T02:40:13.338Z,9.73
2018-09-28T02:42:42.406Z,10.40
2018-09-28T02:45:11.657Z,10.37
2018-09-28T02:47:40.827Z,10.23
2018-09-28T02:50:09.911Z,10.53
2018-09-28T02:52:38.881Z,10.20
2018-09-28T02:55:07.934Z,10.37
2018-09-28T02:57:36.963Z,10.00
2018-09-28T03:00:05.989Z,10.17
2018-09-28T03:02:35.115Z,10.60
2018-09-28T03:05:04.238Z,9.77
2018-09-28T03:07:33.241Z,9.93
2018-09-28T03:10:02.267Z,10.00
2018-09-28T03:12:31.271Z,10.00
2018-09-28T03:15:00.283Z,9.93
2018-09-28T03:17:29.429Z,10.03
2018-09-28T03:19:58.413Z,10.53
2018-09-28T03:22:27.464Z,10.20
2018-09-28T03:24:56.478Z,10.43
2018-09-28T03:27:25.556Z,9.73
2018-09-28T03:29:54.548Z,10.27
2018-09-28T03:32:23.555Z,9.97
2018-09-28T03:34:52.540Z,10.20
2018-09-28T03:37:21.537Z,10.03
2018-09-28T03:39:50.678Z,10.37
2018-09-28T03:42:19.807Z,10.80
2018-09-28T03:44:48.785Z,11.43
2018-09-28T03:47:17.754Z,10.63
2018-09-28T03:49:46.747Z,10.67
2018-09-28T03:52:15.725Z,10.17
2018-09-28T03:54:44.723Z,10.33
2018-09-28T03:57:13.734Z,11.27
2018-09-28T03:59:42.708Z,11.00
2018-09-28T04:02:11.849Z,11.40
2018-09-28T04:04:40.845Z,11.97
2018-09-28T04:07:09.915Z,12.27
2018-09-28T04:09:38.989Z,11.87
2018-09-28T04:12:08.170Z,11.67
2018-09-28T04:14:37.450Z,12.70
2018-09-28T04:17:06.630Z,12.37
2018-09-28T04:19:35.596Z,11.43
2018-09-28T04:22:04.666Z,11.50
2018-09-28T04:24:33.755Z,11.20
2018-09-28T04:27:02.824Z,11.70
2018-09-28T04:29:31.882Z,11.87
2018-09-28T04:32:00.944Z,10.90
2018-09-28T04:34:29.978Z,11.33
2018-09-28T04:36:59.186Z,10.43
2018-09-28T04:39:28.259Z,10.80
2018-09-28T04:41:57.296Z,11.73
2018-09-28T04:44:26.365Z,11.87
2018-09-28T04:46:55.327Z,11.23
2018-09-28T04:49:24.406Z,10.70
2018-09-28T04:51:53.439Z,11.63
2018-09-28T04:54:22.534Z,11.40
2018-09-28T04:56:51.558Z,11.53
2018-09-28T04:59:20.607Z,11.50
2018-09-28T05:01:49.810Z,10.93
2018-09-28T05:04:18.820Z,10.90
2018-09-28T05:06:47.847Z,10.70
2018-09-28T05:09:16.874Z,10.90
2018-09-28T05:11:46.007Z,10.53
2018-09-28T05:14:15.106Z,10.33
2018-09-28T05:16:50.482Z,10.30
2018-09-28T05:19:19.521Z,10.87
2018-09-28T05:21:48.540Z,11.10
2018-09-28T05:24:17.554Z,11.50
2018-09-28T05:26:46.558Z,10.73
2018-09-28T05:29:15.658Z,11.20
2018-09-28T05:31:44.995Z,12.23
2018-09-28T05:34:13.901Z,11.27
2018-09-28T05:36:42.908Z,10.47
2018-09-28T05:39:11.959Z,12.00
2018-09-28T05:41:40.972Z,11.07
2018-09-28T05:44:09.988Z,11.33
2018-09-28T05:46:38.975Z,10.80
2018-09-28T05:49:08.037Z,11.27
2018-09-28T05:51:37.049Z,11.47
2018-09-28T05:54:06.051Z,11.97
2018-09-28T05:56:35.038Z,11.83
2018-09-28T05:59:09.455Z,12.17
2018-09-28T06:01:43.822Z,11.60
2018-09-28T06:04:18.129Z,11.90
2018-09-28T06:06:47.295Z,11.70
2018-09-28T06:09:16.326Z,11.80
2018-09-28T06:11:45.349Z,11.30
2018-09-28T06:14:14.444Z,11.90
2018-09-28T06:16:43.518Z,11.30
2018-09-28T06:19:12.548Z,12.47
2018-09-28T06:21:41.547Z,11.73
2018-09-28T06:24:10.765Z,11.23
2018-09-28T06:26:39.739Z,12.57
2018-09-28T06:29:08.727Z,11.90
2018-09-28T06:31:37.705Z,11.70
2018-09-28T06:34:06.726Z,11.90
2018-09-28T06:36:35.767Z,11.87
2018-09-28T06:39:06.035Z,11.43
2018-09-28T06:41:35.101Z,11.43
2018-09-28T06:44:04.231Z,12.33
2018-09-28T06:46:33.199Z,11.43
2018-09-28T06:49:02.215Z,11.40
2018-09-28T06:51:31.860Z,11.17
2018-09-28T06:54:00.967Z,10.97
2018-09-28T06:56:29.887Z,11.73
2018-09-28T06:58:59.034Z,10.87
2018-09-28T07:01:28.138Z,10.83
2018-09-28T07:03:57.232Z,10.70
2018-09-28T07:06:26.298Z,10.57
2018-09-28T07:08:55.294Z,9.60
2018-09-28T07:11:24.375Z,9.60
2018-09-28T07:13:53.446Z,9.67
2018-09-28T07:16:22.538Z,9.13
2018-09-28T07:18:51.527Z,10.00
2018-09-28T07:21:20.578Z,9.70
2018-09-28T07:23:49.641Z,9.43
2018-09-28T07:26:18.670Z,9.70
2018-09-28T07:28:47.723Z,10.23
2018-09-28T07:31:16.882Z,10.30
2018-09-28T07:33:45.966Z,10.03
2018-09-28T07:36:15.069Z,11.20
2018-09-28T07:38:44.136Z,11.73
2018-09-28T07:41:13.182Z,10.43
2018-09-28T07:43:42.337Z,10.50
2018-09-28T07:46:11.530Z,10.83
2018-09-28T07:48:40.494Z,11.13
2018-09-28T07:51:09.512Z,10.73
2018-09-28T07:53:38.558Z,11.40
2018-09-28T07:56:08.502Z,10.80
2018-09-28T07:58:37.471Z,11.20
2018-09-28T08:01:06.465Z,11.87
2018-09-28T08:03:35.558Z,11.20
2018-09-28T08:06:04.649Z,11.20
2018-09-28T08:08:33.619Z,11.07
2018-09-28T08:11:02.644Z,11.17
2018-09-28T08:13:31.747Z,11.50
2018-09-28T08:16:00.706Z,11.20
2018-09-28T08:18:29.744Z,11.83
2018-09-28T08:20:58.865Z,11.43
2018-09-28T08:23:27.932Z,10.37
2018-09-28T08:25:56.830Z,11.27
2018-09-28T08:28:25.902Z,10.17
2018-09-28T08:30:54.890Z,10.67
2018-09-28T08:33:23.940Z,11.07
2018-09-28T08:35:53.062Z,10.57
2018-09-28T08:38:22.076Z,11.30
2018-09-28T08:40:51.104Z,11.17
2018-09-28T08:43:20.134Z,10.30
2018-09-28T08:45:49.191Z,12.20
2018-09-28T08:48:18.313Z,9.93
2018-09-28T08:50:54.034Z,11.00
2018-09-28T08:53:23.057Z,11.23
2018-09-28T08:55:52.113Z,11.47
2018-09-28T08:58:21.135Z,11.07
2018-09-28T09:00:50.221Z,11.60
2018-09-28T09:03:19.250Z,11.70
2018-09-28T09:05:48.321Z,12.20
2018-09-28T09:08:17.410Z,11.60
2018-09-28T09:10:46.525Z,12.43
2018-09-28T09:13:15.522Z,12.27
2018-09-28T09:15:44.643Z,12.47
2018-09-28T09:18:13.724Z,12.00
2018-09-28T09:20:42.722Z,13.83
2018-09-28T09:23:11.768Z,12.37
2018-09-28T09:25:40.770Z,13.13
2018-09-28T09:28:09.819Z,14.00
2018-09-28T09:30:38.906Z,13.57
2018-09-28T09:33:07.978Z,13.80
2018-09-28T09:35:36.997Z,12.70
2018-09-28T09:38:06.009Z,13.20
2018-09-28T09:40:35.059Z,12.93
2018-09-28T09:43:04.169Z,13.43
2018-09-28T09:45:33.261Z,12.80
2018-09-28T09:48:02.345Z,11.80
2018-09-28T09:50:31.434Z,12.77
2018-09-28T09:55:31.599Z,12.60
2018-09-28T09:58:00.723Z,13.10
2018-09-28T10:00:35.025Z,11.40
2018-09-28T10:03:09.468Z,11.73
2018-09-28T10:05:38.489Z,13.67
2018-09-28T10:08:07.449Z,14.43
2018-09-28T10:10:36.577Z,15.73
2018-09-28T10:13:05.635Z,14.27
2018-09-28T10:15:34.653Z,13.93
2018-09-28T10:18:05.048Z,16.23
2018-09-28T10:20:34.493Z,16.57
2018-09-28T10:23:04.370Z,15.63
2018-09-28T10:25:33.406Z,15.27
2018-09-28T10:28:02.467Z,13.67
2018-09-28T10:30:31.403Z,14.30
2018-09-28T10:33:00.462Z,13.17
2018-09-28T10:35:29.533Z,15.63
2018-09-28T10:37:59.043Z,14.50
2018-09-28T10:40:28.183Z,14.97
2018-09-28T10:42:57.177Z,13.90
2018-09-28T10:45:26.198Z,14.40
2018-09-28T10:47:55.268Z,14.40
2018-09-28T10:50:24.343Z,15.27
2018-09-28T10:52:53.554Z,15.17
2018-09-28T10:55:22.491Z,14.73
2018-09-28T10:57:51.509Z,14.90
2018-09-28T11:00:20.672Z,16.50
2018-09-28T11:02:49.613Z,15.43
2018-09-28T11:05:18.679Z,15.70
2018-09-28T11:07:47.682Z,16.17
2018-09-28T11:10:16.844Z,16.00
2018-09-28T11:12:45.771Z,16.60
2018-09-28T11:17:47.115Z,14.57
2018-09-28T11:20:16.242Z,15.03
2018-09-28T11:22:45.214Z,12.93
2018-09-28T11:25:14.298Z,14.27
2018-09-28T11:27:43.343Z,13.87
2018-09-28T11:30:13.242Z,15.40
2018-09-28T11:32:42.282Z,13.73
2018-09-28T11:35:11.251Z,14.73
2018-09-28T11:37:40.306Z,14.90
2018-09-28T11:40:09.466Z,14.57
2018-09-28T11:42:38.441Z,14.23
2018-09-28T11:45:07.571Z,15.00
2018-09-28T11:47:36.705Z,14.50
2018-09-28T11:50:05.840Z,12.60
2018-09-28T11:52:34.894Z,12.77
2018-09-28T11:55:03.979Z,10.03
2018-09-28T11:57:32.974Z,10.83
2018-09-28T12:00:01.979Z,12.73
2018-09-28T12:02:31.358Z,12.00
2018-09-28T12:05:00.854Z,10.73
2018-09-28T12:07:29.942Z,11.07
2018-09-28T12:09:58.930Z,10.27
2018-09-28T12:12:27.970Z,10.57
2018-09-28T12:14:57.062Z,11.10
2018-09-28T12:17:26.039Z,7.97
2018-09-28T12:19:55.174Z,11.60
2018-09-28T12:22:24.225Z,11.33
2018-09-28T12:24:53.270Z,11.30
2018-09-28T12:27:22.456Z,9.57
2018-09-28T12:29:51.478Z,9.43
2018-09-28T12:32:20.624Z,10.07
2018-09-28T12:34:49.694Z,12.57
2018-09-28T12:37:18.730Z,9.77
2018-09-28T12:39:47.887Z,9.03
2018-09-28T12:42:16.854Z,10.20
2018-09-28T12:44:45.962Z,10.87
2018-09-28T12:47:15.122Z,9.40
2018-09-28T12:49:44.147Z,9.33
2018-09-28T12:52:13.261Z,10.77
2018-09-28T12:54:42.294Z,11.67
2018-09-28T12:57:11.352Z,11.10
2018-09-28T12:59:40.521Z,9.57
2018-09-28T13:02:09.572Z,11.17
2018-09-28T13:04:38.595Z,11.40
2018-09-28T13:07:07.966Z,11.67
2018-09-28T13:09:37.005Z,12.60
2018-09-28T13:12:06.047Z,11.83
2018-09-28T13:14:35.133Z,11.00
2018-09-28T13:17:04.202Z,11.43
2018-09-28T13:19:33.263Z,13.13
2018-09-28T13:22:02.286Z,12.07
2018-09-28T13:24:31.324Z,13.20
2018-09-28T13:27:00.705Z,12.13
2018-09-28T13:29:29.843Z,11.63
2018-09-28T13:31:58.968Z,13.63
2018-09-28T13:34:28.196Z,11.57
2018-09-28T13:36:58.078Z,13.40
2018-09-28T13:39:27.060Z,13.00
2018-09-28T13:41:56.515Z,12.83
2018-09-28T13:44:26.014Z,12.37
2018-09-28T13:46:55.041Z,12.40
2018-09-28T13:49:23.987Z,11.60
2018-09-28T13:51:53.184Z,11.50
2018-09-28T13:54:22.653Z,11.73
2018-09-28T13:56:51.635Z,10.87
2018-09-28T13:59:21.352Z,11.10
2018-09-28T14:01:50.642Z,11.13
2018-09-28T14:04:20.376Z,11.23
2018-09-28T14:06:49.445Z,9.97
2018-09-28T14:09:18.394Z,10.77
2018-09-28T14:11:47.498Z,11.10
2018-09-28T14:14:16.706Z,9.60
2018-09-28T14:16:45.982Z,9.83
2018-09-28T14:19:15.068Z,9.47
2018-09-28T14:21:44.261Z,10.13
2018-09-28T14:24:13.355Z,10.60
2018-09-28T14:29:01.425Z,10.27
2018-09-28T14:31:30.706Z,10.60
2018-09-28T14:34:00.010Z,9.60
2018-09-28T14:36:29.314Z,10.27
2018-09-28T14:38:58.352Z,8.83
2018-09-28T14:41:27.659Z,9.20
2018-09-28T14:43:56.720Z,9.23
2018-09-28T14:46:26.125Z,8.03
2018-09-28T14:48:56.022Z,7.57
2018-09-28T14:51:24.974Z,7.30
2018-09-28T14:53:54.724Z,7.40
2018-09-28T14:56:24.342Z,7.53
2018-09-28T14:58:53.255Z,7.63
2018-09-28T15:01:22.622Z,6.70
2018-09-28T15:03:51.659Z,6.63
2018-09-28T15:06:20.933Z,6.03
2018-09-28T15:08:49.981Z,6.23
2018-09-28T15:11:18.930Z,6.20
2018-09-28T15:13:47.989Z,6.13
2018-09-28T15:16:17.388Z,5.90
2018-09-28T15:18:46.520Z,6.00
2018-09-28T15:21:15.869Z,5.93
2018-09-28T15:23:44.983Z,5.50
2018-09-28T15:26:14.215Z,5.10
2018-09-28T15:28:44.184Z,4.80
2018-09-28T15:31:13.387Z,4.33
2018-09-28T15:33:42.832Z,4.60
2018-09-28T15:36:11.802Z,4.67
2018-09-28T15:38:41.110Z,4.43
2018-09-28T15:41:10.694Z,4.53
2018-09-28T15:43:40.114Z,4.93
2018-09-28T15:46:09.765Z,4.70
2018-09-28T15:48:40.201Z,4.70
2018-09-28T15:51:09.521Z,4.67
2018-09-28T15:53:39.133Z,4.53
2018-09-28T15:56:09.165Z,4.87
2018-09-28T15:58:39.309Z,4.97
2018-09-28T16:01:08.958Z,4.50
2018-09-28T16:03:38.046Z,4.47
2018-09-28T16:06:07.164Z,4.27
2018-09-28T16:08:36.379Z,4.60
2018-09-28T16:11:05.484Z,4.80
2018-09-28T16:13:34.647Z,4.50
2018-09-28T16:16:03.636Z,4.27
2018-09-28T16:18:32.857Z,4.47
2018-09-28T16:21:01.998Z,4.30
2018-09-28T16:23:31.119Z,4.57
2018-09-28T16:26:00.099Z,4.27
2018-09-28T16:28:29.246Z,5.00
2018-09-28T16:30:58.319Z,5.50
2018-09-28T16:33:27.496Z,5.30
2018-09-28T16:35:56.705Z,7.50
2018-09-28T16:38:25.669Z,7.40
2018-09-28T16:40:54.701Z,8.20
2018-09-28T16:43:23.749Z,8.10
2018-09-28T16:45:52.873Z,8.37
2018-09-28T16:48:21.977Z,7.90
2018-09-28T16:50:51.083Z,8.37
2018-09-28T16:53:20.083Z,8.70
2018-09-28T16:55:49.123Z,8.47
2018-09-28T16:58:18.286Z,7.87
2018-09-28T17:00:47.277Z,8.37
2018-09-28T17:03:16.319Z,8.10
2018-09-28T17:05:45.614Z,8.00
2018-09-28T17:08:14.601Z,8.97
2018-09-28T17:10:43.590Z,8.30
2018-09-28T17:13:12.635Z,8.00
2018-09-28T17:15:41.643Z,7.80
2018-09-28T17:18:10.651Z,7.83
2018-09-28T17:20:39.750Z,7.77
2018-09-28T17:23:08.756Z,8.37
2018-09-28T17:25:37.915Z,7.57
2018-09-28T17:28:07.213Z,7.43
2018-09-28T17:30:36.354Z,7.07
2018-09-28T17:33:05.293Z,7.37
2018-09-28T17:35:34.527Z,7.13
2018-09-28T17:38:03.625Z,6.60
2018-09-28T17:40:32.615Z,6.17
2018-09-28T17:43:01.625Z,6.10
2018-09-28T17:45:30.894Z,6.30
2018-09-28T17:48:00.014Z,6.53
2018-09-28T17:50:29.002Z,6.00
2018-09-28T17:52:58.046Z,7.20
2018-09-28T17:55:27.047Z,6.60
2018-09-28T17:57:56.082Z,6.90
2018-09-28T18:00:25.650Z,6.97
2018-09-28T18:02:54.710Z,6.67
2018-09-28T18:05:23.848Z,7.23
2018-09-28T18:07:52.922Z,6.90
2018-09-28T18:10:21.973Z,7.00
2018-09-28T18:12:50.973Z,6.27
2018-09-28T18:15:20.104Z,6.77
2018-09-28T18:17:49.070Z,7.17
2018-09-28T18:20:18.398Z,6.70
2018-09-28T18:22:47.487Z,6.27
2018-09-28T18:25:16.571Z,6.67
2018-09-28T18:27:45.685Z,6.57
2018-09-28T18:30:14.768Z,5.97
2018-09-28T18:32:43.722Z,6.10
2018-09-28T18:35:12.777Z,6.00
2018-09-28T18:37:41.804Z,5.57
2018-09-28T18:40:10.859Z,6.60
2018-09-28T18:42:39.890Z,6.07
2018-09-28T18:45:08.935Z,6.10
2018-09-28T18:47:37.918Z,6.30
2018-09-28T18:50:06.886Z,6.27
2018-09-28T18:52:36.014Z,6.23
2018-09-28T18:55:05.367Z,5.93
2018-09-28T18:57:34.337Z,6.30
2018-09-28T19:00:03.471Z,6.43
2018-09-28T19:02:32.527Z,6.33
2018-09-28T19:05:01.610Z,6.30
2018-09-28T19:07:30.687Z,6.37
2018-09-28T19:09:59.697Z,6.17
2018-09-28T19:12:28.790Z,6.47
2018-09-28T19:14:57.775Z,5.93
2018-09-28T19:17:26.855Z,6.23
2018-09-28T19:19:55.958Z,6.07
2018-09-28T19:22:24.979Z,6.23
2018-09-28T19:24:54.031Z,6.57
2018-09-28T19:27:23.021Z,6.77
2018-09-28T19:29:52.038Z,6.27
2018-09-28T19:32:21.250Z,6.33
2018-09-28T19:34:50.246Z,5.87
2018-09-28T19:37:19.347Z,6.10
2018-09-28T19:39:48.322Z,6.10
2018-09-28T19:42:17.371Z,6.03
2018-09-28T19:44:46.349Z,6.17
2018-09-28T19:47:15.478Z,6.33
2018-09-28T19:49:44.472Z,10.20
2018-09-28T19:52:13.488Z,8.67
2018-09-28T19:54:42.590Z,6.50
2018-09-28T19:57:11.595Z,6.97
2018-09-28T19:59:40.671Z,7.07
2018-09-28T20:02:09.658Z,6.00
2018-09-28T20:04:38.645Z,11.00
2018-09-28T20:07:07.797Z,7.43
2018-09-28T20:09:36.769Z,8.73
2018-09-28T20:12:07.202Z,11.80
2018-09-28T20:14:37.133Z,6.37
2018-09-28T20:17:06.608Z,6.47
2018-09-28T20:19:35.641Z,7.40
2018-09-28T20:22:07.590Z,6.20
2018-09-28T20:24:36.637Z,6.43
2018-09-28T20:27:05.692Z,6.40
2018-09-28T20:29:34.694Z,6.67
2018-09-28T20:32:03.998Z,6.70
2018-09-28T20:34:33.062Z,7.10
2018-09-28T20:37:02.150Z,6.43
2018-09-28T20:39:31.298Z,6.10
2018-09-28T20:42:00.627Z,6.63
2018-09-28T20:44:29.792Z,6.27
2018-09-28T20:46:58.842Z,6.00
2018-09-28T20:49:27.847Z,6.53
2018-09-28T20:51:56.967Z,6.27
2018-09-28T20:54:26.025Z,6.20
2018-09-28T20:56:55.350Z,6.63
2018-09-28T20:59:24.406Z,5.70
2018-09-28T21:01:53.428Z,6.40
2018-09-28T21:04:22.498Z,6.50
2018-09-28T21:06:51.592Z,6.67
2018-09-28T21:09:20.598Z,7.57
2018-09-28T21:11:49.594Z,6.73
2018-09-28T21:14:18.735Z,6.60
2018-09-28T21:16:48.419Z,7.13
2018-09-28T21:19:17.534Z,6.80
2018-09-28T21:21:46.813Z,6.87
2018-09-28T21:24:16.240Z,7.47
2018-09-28T21:26:45.502Z,7.47
2018-09-28T21:29:14.543Z,7.07
2018-09-28T21:31:43.702Z,7.73
2018-09-28T21:34:12.950Z,6.67
2018-09-28T21:36:42.339Z,6.87
2018-09-28T21:39:11.834Z,6.60
2018-09-28T21:41:41.305Z,6.53
2018-09-28T21:44:10.544Z,6.83
2018-09-28T21:46:39.549Z,6.53
2018-09-28T21:49:08.729Z,6.60
2018-09-28T21:51:37.903Z,6.30
2018-09-28T21:54:07.214Z,6.40
2018-09-28T21:56:36.358Z,6.40
2018-09-28T21:59:05.467Z,6.60
2018-09-28T22:01:35.587Z,6.33
2018-09-28T22:04:05.629Z,7.13
2018-09-28T22:06:34.732Z,7.20
2018-09-28T22:09:05.061Z,6.70
2018-09-28T22:11:36.596Z,7.03
2018-09-28T22:14:06.124Z,6.77
2018-09-28T22:16:35.151Z,6.10
2018-09-28T22:19:04.168Z,7.03
2018-09-28T22:21:33.276Z,6.27
2018-09-28T22:24:02.266Z,7.40
2018-09-28T22:26:31.260Z,6.90
2018-09-28T22:29:00.289Z,7.33
2018-09-28T22:31:29.461Z,7.20
2018-09-28T22:33:58.503Z,6.57
2018-09-28T22:36:27.781Z,6.83
2018-09-28T22:38:56.846Z,6.80
2018-09-28T22:41:27.124Z,6.47
2018-09-28T22:43:56.071Z,6.50
2018-09-28T22:46:25.091Z,6.97
2018-09-28T22:48:54.679Z,6.77
2018-09-28T22:51:23.663Z,6.93
2018-09-28T22:53:52.631Z,6.97
2018-09-28T22:56:21.614Z,6.63
2018-09-28T22:58:50.563Z,7.33
2018-09-28T23:01:19.566Z,7.17
2018-09-28T23:03:49.446Z,7.67
2018-09-28T23:06:18.487Z,6.43
2018-09-28T23:08:47.532Z,7.50
2018-09-28T23:11:16.502Z,6.97
2018-09-28T23:13:45.539Z,7.30
2018-09-28T23:16:14.582Z,7.40
2018-09-28T23:18:43.536Z,7.47
2018-09-28T23:21:12.566Z,7.30
2018-09-28T23:23:41.557Z,7.67
2018-09-28T23:26:10.531Z,8.20
2018-09-28T23:28:39.609Z,7.20
2018-09-28T23:31:08.638Z,7.90
2018-09-28T23:33:38.002Z,7.20
2018-09-28T23:36:06.983Z,7.57
2018-09-28T23:38:36.149Z,7.33
2018-09-28T23:41:05.218Z,7.60
2018-09-28T23:43:34.237Z,7.80
2018-09-28T23:46:03.182Z,7.23
2018-09-28T23:48:32.142Z,7.57
2018-09-28T23:51:01.170Z,7.07
2018-09-28T23:53:30.190Z,6.93
2018-09-28T23:55:59.160Z,7.60
2018-09-28T23:58:28.171Z,7.20
